MiSS Sylvia — WDE5412 — position and weather

sailwx.info

Track history (hours):
 
Tides and Currents Weather Stations Pressure Air Temp Water Temp Dewpoint Dewpoint Depression Visibility Wind Speed Wind Dir Waves Ship Positions

MiSS Sylvia

Owner: DOUBLE J MARINE, LLC, LAPLACE, LA. More information available from US FCC via Universal Licensing System and Coast Guard Vessel Documentation Center.

Last reported at 2014-Oct-01 09:33 UTC. Time now 2014-Oct-01 10:24 UTC.
Position N 29°58' W 090°24'.

Length 20 m; draft 3.4 m.

Type: Towing. MMSI: 367366340.

Date/timePositionNaut miles runAvg speedWind from/ knotsBaromVisibWave heightAir tempDewpointWater temp
2014-Oct-01 09:33N 29°58' W 090°24'4 3.8
2014-Oct-01 08:33N 29°60' W 090°27'2 2.3
2014-Oct-01 07:33N 30°02' W 090°28'1 0.7
2014-Oct-01 06:33N 30°03' W 090°28'1 1.4
2014-Oct-01 05:33N 30°01' W 090°29'4 3.9
2014-Oct-01 04:33N 29°59' W 090°25'4 3.8
2014-Oct-01 03:33N 29°56' W 090°22'2 0.8
2014-Oct-01 01:32N 29°56' W 090°20'0 0.1
2014-Oct-01 00:32N 29°56' W 090°20'0 0.3
2014-Sep-30 23:32N 29°56' W 090°20'0 0.1
2014-Sep-30 22:21N 29°56' W 090°20'1 0.1
2014-Sep-30 10:05N 29°56' W 090°19'0 0.0
2014-Sep-30 09:33N 29°56' W 090°19'1 0.4
2014-Sep-30 07:07N 29°56' W 090°20'1 1.3
2014-Sep-30 06:23N 29°56' W 090°19'3 0.2
2014-Sep-29 12:32N 29°57' W 090°23'2 1.8
2014-Sep-29 11:33N 29°58' W 090°24'4 4.1
2014-Sep-29 10:33N 30°00' W 090°28'1 1.4
2014-Sep-29 09:33N 30°01' W 090°29'1 1.4
2014-Sep-29 08:33N 30°03' W 090°28'1 1.4
2014-Sep-29 07:33N 30°01' W 090°29'0 0.4
2014-Sep-29 06:33N 30°02' W 090°28'0 0.0
2014-Sep-29 05:33N 30°02' W 090°28'0 0.1
2014-Sep-29 04:33N 30°02' W 090°28'0 0.0
2014-Sep-29 03:33N 30°02' W 090°28'0 0.1
2014-Sep-29 02:33N 30°02' W 090°29'0 0.5
2014-Sep-29 01:33N 30°01' W 090°29'0 0.4
2014-Sep-29 00:33N 30°02' W 090°29'0 0.4
2014-Sep-28 23:33N 30°01' W 090°28'0 0.1
2014-Sep-28 22:33N 30°01' W 090°29'0 0.1
2014-Sep-28 21:33N 30°02' W 090°29'0 0.0
2014-Sep-28 20:34N 30°02' W 090°29'1 1.3
2014-Sep-28 19:33N 30°03' W 090°29'3 3.3
2014-Sep-28 18:33N 30°03' W 090°32'2 1.8
2014-Sep-28 17:33N 30°03' W 090°34'0 0.0
2014-Sep-28 16:33N 30°03' W 090°34'0 0.0
2014-Sep-28 15:33N 30°03' W 090°34'0 0.2
2014-Sep-28 14:33N 30°03' W 090°34'2 2.1
2014-Sep-28 13:33N 30°03' W 090°32'3 2.2
2014-Sep-28 12:13N 30°02' W 090°28'1 1.0
2014-Sep-28 11:33N 30°01' W 090°29'0 0.0
2014-Sep-28 10:33N 30°01' W 090°29'0 0.0
2014-Sep-28 09:33N 30°01' W 090°29'1 0.6
2014-Sep-28 08:33N 30°02' W 090°29'1 0.8
2014-Sep-28 07:33N 30°03' W 090°28'0 0.2
2014-Sep-28 06:33N 30°03' W 090°28'0 0.1
2014-Sep-28 05:34N 30°03' W 090°28'1 1.1
2014-Sep-28 04:33N 30°01' W 090°29'0 0.1
2014-Sep-28 03:33N 30°01' W 090°29'2 2.0
2014-Sep-28 02:33N 30°03' W 090°30'5 5.3
2014-Sep-28 01:33N 30°03' W 090°36'4 3.8
2014-Sep-28 00:33N 30°03' W 090°40'5 5.4
2014-Sep-27 23:33N 30°01' W 090°46'1 0.1
2014-Sep-27 14:06N 30°00' W 090°47'2 3.8
2014-Sep-27 13:29N 30°01' W 090°44'3 3.7
2014-Sep-27 12:33N 30°02' W 090°41'1 1.3
2014-Sep-27 11:33N 30°03' W 090°39'0 0.3
2014-Sep-27 10:33N 30°03' W 090°40'0 0.0
2014-Sep-27 09:33N 30°03' W 090°40'0 0.3
2014-Sep-27 08:33N 30°03' W 090°39'4 4.2
2014-Sep-27 07:33N 30°03' W 090°35'0 0.3
2014-Sep-27 06:33N 30°03' W 090°34'1 0.5
2014-Sep-27 05:33N 30°03' W 090°34'2 2.1
2014-Sep-27 04:33N 30°03' W 090°31'2 2.1
2014-Sep-27 03:33N 30°03' W 090°29'1 1.2
2014-Sep-27 02:33N 30°02' W 090°28'1 0.3
2014-Sep-27 00:28N 30°02' W 090°29'1 1.2
2014-Sep-26 23:33N 30°01' W 090°29'0 0.0
2014-Sep-26 22:33N 30°01' W 090°29'2 0.2
2014-Sep-26 12:33N 30°03' W 090°30'3 2.9
2014-Sep-26 11:33N 30°03' W 090°34'0 0.1
2014-Sep-26 10:33N 30°03' W 090°34'0 0.1
2014-Sep-26 09:33N 30°03' W 090°34'0 0.0
2014-Sep-26 08:33N 30°03' W 090°34'0 0.3
2014-Sep-26 07:33N 30°03' W 090°34'0 0.4
2014-Sep-26 06:33N 30°03' W 090°34'0 0.0
2014-Sep-26 05:33N 30°03' W 090°34'2 2.2
2014-Sep-26 04:33N 30°02' W 090°37'2 1.7
2014-Sep-26 03:33N 30°03' W 090°39'4 3.5
2014-Sep-26 02:33N 30°03' W 090°35'1 0.6
2014-Sep-26 01:33N 30°03' W 090°34'2 2.3
2014-Sep-26 00:33N 30°03' W 090°31'2 1.8
2014-Sep-25 23:33N 30°03' W 090°29'1 1.2
2014-Sep-25 22:33N 30°02' W 090°29'0 0.0
2014-Sep-25 13:09N 30°02' W 090°29'0 0.6
2014-Sep-25 12:33N 30°02' W 090°29'0 0.5
2014-Sep-25 11:33N 30°02' W 090°29'1 0.6
2014-Sep-25 10:33N 30°03' W 090°28'0 0.2
2014-Sep-25 09:33N 30°03' W 090°29'5 5.1
2014-Sep-25 08:33N 30°03' W 090°34'0 0.0
2014-Sep-25 07:33N 30°03' W 090°34'1 1.3
2014-Sep-25 06:33N 30°03' W 090°33'2 2.2
2014-Sep-25 05:33N 30°03' W 090°30'2 2.0
2014-Sep-25 04:33N 30°02' W 090°28'0 0.1
2014-Sep-25 03:33N 30°02' W 090°29'0 0.0
2014-Sep-25 02:33N 30°02' W 090°29'0 0.0
2014-Sep-25 01:33N 30°02' W 090°29'1 0.6
2014-Sep-25 00:33N 30°03' W 090°28'1 1.0
2014-Sep-24 23:33N 30°02' W 090°28'3 2.8
2014-Sep-24 22:33N 30°03' W 090°32'0 0.0
2014-Sep-24 21:33N 30°03' W 090°32'4 3.6
2014-Sep-24 20:33N 30°03' W 090°36'1 0.5
2014-Sep-24 18:33N 30°03' W 090°35'14 0.3
2014-Sep-22 23:12N 29°60' W 090°50'13 3.6
2014-Sep-22 19:33N 30°03' W 090°35'25 3.0
2014-Sep-22 11:03N 29°55' W 090°08'18 0.8
2014-Sep-21 12:33N 29°60' W 090°27'3 3.2
2014-Sep-21 11:33N 30°03' W 090°28'0 0.4
2014-Sep-21 10:33N 30°02' W 090°29'1 0.8
2014-Sep-21 09:33N 30°02' W 090°29'  
Track history (hours):
 
Tides and Currents Weather Stations Pressure Air Temp Water Temp Dewpoint Dewpoint Depression Visibility Wind Speed Wind Dir Waves Ship Positions

MiSS Sylvia

Owner: DOUBLE J MARINE, LLC, LAPLACE, LA. More information available from US FCC via Universal Licensing System and Coast Guard Vessel Documentation Center.

Last reported at 2014-Oct-01 09:33 UTC. Time now 2014-Oct-01 10:24 UTC.
Position N 29°58' W 090°24'.

Length 20 m; draft 3.4 m.

Type: Towing. MMSI: 367366340.

Date/timePositionNaut miles runAvg speedWind from/ knotsBaromVisibWave heightAir tempDewpointWater temp
2014-Oct-01 09:33N 29°58' W 090°24'4 3.8
2014-Oct-01 08:33N 29°60' W 090°27'2 2.3
2014-Oct-01 07:33N 30°02' W 090°28'1 0.7
2014-Oct-01 06:33N 30°03' W 090°28'1 1.4
2014-Oct-01 05:33N 30°01' W 090°29'4 3.9
2014-Oct-01 04:33N 29°59' W 090°25'4 3.8
2014-Oct-01 03:33N 29°56' W 090°22'2 0.8
2014-Oct-01 01:32N 29°56' W 090°20'0 0.1
2014-Oct-01 00:32N 29°56' W 090°20'0 0.3
2014-Sep-30 23:32N 29°56' W 090°20'0 0.1
2014-Sep-30 22:21N 29°56' W 090°20'1 0.1
2014-Sep-30 10:05N 29°56' W 090°19'0 0.0
2014-Sep-30 09:33N 29°56' W 090°19'1 0.4
2014-Sep-30 07:07N 29°56' W 090°20'1 1.3
2014-Sep-30 06:23N 29°56' W 090°19'3 0.2
2014-Sep-29 12:32N 29°57' W 090°23'2 1.8
2014-Sep-29 11:33N 29°58' W 090°24'4 4.1
2014-Sep-29 10:33N 30°00' W 090°28'1 1.4
2014-Sep-29 09:33N 30°01' W 090°29'1 1.4
2014-Sep-29 08:33N 30°03' W 090°28'1 1.4
2014-Sep-29 07:33N 30°01' W 090°29'0 0.4
2014-Sep-29 06:33N 30°02' W 090°28'0 0.0
2014-Sep-29 05:33N 30°02' W 090°28'0 0.1
2014-Sep-29 04:33N 30°02' W 090°28'0 0.0
2014-Sep-29 03:33N 30°02' W 090°28'0 0.1
2014-Sep-29 02:33N 30°02' W 090°29'0 0.5
2014-Sep-29 01:33N 30°01' W 090°29'0 0.4
2014-Sep-29 00:33N 30°02' W 090°29'0 0.4
2014-Sep-28 23:33N 30°01' W 090°28'0 0.1
2014-Sep-28 22:33N 30°01' W 090°29'0 0.1
2014-Sep-28 21:33N 30°02' W 090°29'0 0.0
2014-Sep-28 20:34N 30°02' W 090°29'1 1.3
2014-Sep-28 19:33N 30°03' W 090°29'3 3.3
2014-Sep-28 18:33N 30°03' W 090°32'2 1.8
2014-Sep-28 17:33N 30°03' W 090°34'0 0.0
2014-Sep-28 16:33N 30°03' W 090°34'0 0.0
2014-Sep-28 15:33N 30°03' W 090°34'0 0.2
2014-Sep-28 14:33N 30°03' W 090°34'2 2.1
2014-Sep-28 13:33N 30°03' W 090°32'3 2.2
2014-Sep-28 12:13N 30°02' W 090°28'1 1.0
2014-Sep-28 11:33N 30°01' W 090°29'0 0.0
2014-Sep-28 10:33N 30°01' W 090°29'0 0.0
2014-Sep-28 09:33N 30°01' W 090°29'1 0.6
2014-Sep-28 08:33N 30°02' W 090°29'1 0.8
2014-Sep-28 07:33N 30°03' W 090°28'0 0.2
2014-Sep-28 06:33N 30°03' W 090°28'0 0.1
2014-Sep-28 05:34N 30°03' W 090°28'1 1.1
2014-Sep-28 04:33N 30°01' W 090°29'0 0.1
2014-Sep-28 03:33N 30°01' W 090°29'2 2.0
2014-Sep-28 02:33N 30°03' W 090°30'5 5.3
2014-Sep-28 01:33N 30°03' W 090°36'4 3.8
2014-Sep-28 00:33N 30°03' W 090°40'5 5.4
2014-Sep-27 23:33N 30°01' W 090°46'1 0.1
2014-Sep-27 14:06N 30°00' W 090°47'2 3.8
2014-Sep-27 13:29N 30°01' W 090°44'3 3.7
2014-Sep-27 12:33N 30°02' W 090°41'1 1.3
2014-Sep-27 11:33N 30°03' W 090°39'0 0.3
2014-Sep-27 10:33N 30°03' W 090°40'0 0.0
2014-Sep-27 09:33N 30°03' W 090°40'0 0.3
2014-Sep-27 08:33N 30°03' W 090°39'4 4.2
2014-Sep-27 07:33N 30°03' W 090°35'0 0.3
2014-Sep-27 06:33N 30°03' W 090°34'1 0.5
2014-Sep-27 05:33N 30°03' W 090°34'2 2.1
2014-Sep-27 04:33N 30°03' W 090°31'2 2.1
2014-Sep-27 03:33N 30°03' W 090°29'1 1.2
2014-Sep-27 02:33N 30°02' W 090°28'1 0.3
2014-Sep-27 00:28N 30°02' W 090°29'1 1.2
2014-Sep-26 23:33N 30°01' W 090°29'0 0.0
2014-Sep-26 22:33N 30°01' W 090°29'2 0.2
2014-Sep-26 12:33N 30°03' W 090°30'3 2.9
2014-Sep-26 11:33N 30°03' W 090°34'0 0.1
2014-Sep-26 10:33N 30°03' W 090°34'0 0.1
2014-Sep-26 09:33N 30°03' W 090°34'0 0.0
2014-Sep-26 08:33N 30°03' W 090°34'0 0.3
2014-Sep-26 07:33N 30°03' W 090°34'0 0.4
2014-Sep-26 06:33N 30°03' W 090°34'0 0.0
2014-Sep-26 05:33N 30°03' W 090°34'2 2.2
2014-Sep-26 04:33N 30°02' W 090°37'2 1.7
2014-Sep-26 03:33N 30°03' W 090°39'4 3.5
2014-Sep-26 02:33N 30°03' W 090°35'1 0.6
2014-Sep-26 01:33N 30°03' W 090°34'2 2.3
2014-Sep-26 00:33N 30°03' W 090°31'2 1.8
2014-Sep-25 23:33N 30°03' W 090°29'1 1.2
2014-Sep-25 22:33N 30°02' W 090°29'0 0.0
2014-Sep-25 13:09N 30°02' W 090°29'0 0.6
2014-Sep-25 12:33N 30°02' W 090°29'0 0.5
2014-Sep-25 11:33N 30°02' W 090°29'1 0.6
2014-Sep-25 10:33N 30°03' W 090°28'0 0.2
2014-Sep-25 09:33N 30°03' W 090°29'5 5.1
2014-Sep-25 08:33N 30°03' W 090°34'0 0.0
2014-Sep-25 07:33N 30°03' W 090°34'1 1.3
2014-Sep-25 06:33N 30°03' W 090°33'2 2.2
2014-Sep-25 05:33N 30°03' W 090°30'2 2.0
2014-Sep-25 04:33N 30°02' W 090°28'0 0.1
2014-Sep-25 03:33N 30°02' W 090°29'0 0.0
2014-Sep-25 02:33N 30°02' W 090°29'0 0.0
2014-Sep-25 01:33N 30°02' W 090°29'1 0.6
2014-Sep-25 00:33N 30°03' W 090°28'1 1.0
2014-Sep-24 23:33N 30°02' W 090°28'3 2.8
2014-Sep-24 22:33N 30°03' W 090°32'0 0.0
2014-Sep-24 21:33N 30°03' W 090°32'4 3.6
2014-Sep-24 20:33N 30°03' W 090°36'1 0.5
2014-Sep-24 18:33N 30°03' W 090°35'14 0.3
2014-Sep-22 23:12N 29°60' W 090°50'13 3.6
2014-Sep-22 19:33N 30°03' W 090°35'25 3.0
2014-Sep-22 11:03N 29°55' W 090°08'18 0.8
2014-Sep-21 12:33N 29°60' W 090°27'3 3.2
2014-Sep-21 11:33N 30°03' W 090°28'0 0.4
2014-Sep-21 10:33N 30°02' W 090°29'1 0.8
2014-Sep-21 09:33N 30°02' W 090°29'  

Dump ship's entire track history